createdAt,value
2018-12-15T00:02:00.837Z,21.62
2018-12-15T00:04:28.340Z,22.07
2018-12-15T00:06:55.787Z,22.43
2018-12-15T00:09:27.454Z,21.13
2018-12-15T00:11:54.908Z,20.23
2018-12-15T00:14:22.379Z,22.33
2018-12-15T00:16:56.467Z,21.67
2018-12-15T00:19:30.287Z,21.17
2018-12-15T00:22:04.279Z,26.60
2018-12-15T00:24:31.731Z,24.70
2018-12-15T00:26:59.189Z,18.27
2018-12-15T00:29:29.758Z,21.53
2018-12-15T00:31:57.210Z,25.40
2018-12-15T00:34:24.687Z,20.13
2018-12-15T00:36:52.163Z,26.97
2018-12-15T00:39:22.656Z,26.70
2018-12-15T00:41:50.170Z,23.38
2018-12-15T00:44:23.453Z,18.05
2018-12-15T00:46:50.944Z,20.65
2018-12-15T00:49:24.573Z,23.00
2018-12-15T00:51:58.135Z,24.40
2018-12-15T00:54:25.774Z,20.90
2018-12-15T00:56:59.349Z,23.40
2018-12-15T00:59:32.965Z,21.10
2018-12-15T01:02:06.904Z,20.03
2018-12-15T01:04:40.254Z,24.23
2018-12-15T01:07:11.279Z,21.07
2018-12-15T01:09:41.697Z,21.10
2018-12-15T01:12:15.219Z,18.73
2018-12-15T01:14:46.277Z,21.70
2018-12-15T01:17:20.682Z,23.53
2018-12-15T01:19:56.184Z,22.02
2018-12-15T01:22:27.145Z,19.43
2018-12-15T01:24:54.631Z,20.37
2018-12-15T01:27:22.074Z,19.83
2018-12-15T01:29:52.797Z,20.73
2018-12-15T01:32:20.238Z,18.25
2018-12-15T01:34:47.761Z,20.70
2018-12-15T01:37:15.186Z,21.33
2018-12-15T01:39:45.703Z,25.67
2018-12-15T01:42:13.269Z,19.37
2018-12-15T01:44:40.754Z,24.00
2018-12-15T01:47:08.202Z,21.07
2018-12-15T01:49:38.694Z,19.00
2018-12-15T01:52:06.167Z,20.37
2018-12-15T01:54:33.729Z,23.80
2018-12-15T01:57:01.170Z,20.23
2018-12-15T01:59:31.983Z,21.37
2018-12-15T02:01:59.422Z,19.20
2018-12-15T02:04:27.547Z,22.48
2018-12-15T02:06:55.015Z,20.23
2018-12-15T02:09:25.992Z,21.73
2018-12-15T02:11:53.422Z,21.63
2018-12-15T02:14:20.995Z,24.03
2018-12-15T02:16:48.444Z,21.27
2018-12-15T02:19:18.906Z,19.07
2018-12-15T02:21:46.367Z,17.93
2018-12-15T02:24:13.834Z,19.93
2018-12-15T02:26:47.889Z,20.40
2018-12-15T02:29:18.908Z,18.83
2018-12-15T02:31:52.303Z,21.50
2018-12-15T02:34:25.928Z,19.03
2018-12-15T02:36:53.387Z,20.93
2018-12-15T02:39:24.067Z,19.27
2018-12-15T02:41:51.529Z,19.40
2018-12-15T02:44:18.988Z,16.30
2018-12-15T02:46:52.228Z,17.10
2018-12-15T02:49:25.779Z,17.73
2018-12-15T02:51:56.740Z,18.23
2018-12-15T02:54:24.198Z,19.23
2018-12-15T02:56:57.757Z,16.30
2018-12-15T02:59:28.430Z,17.00
2018-12-15T03:01:56.007Z,16.67
2018-12-15T03:04:23.489Z,15.40
2018-12-15T03:06:50.962Z,16.47
2018-12-15T03:09:21.572Z,19.50
2018-12-15T03:11:55.056Z,17.00
2018-12-15T03:14:28.813Z,17.30
2018-12-15T03:17:04.279Z,21.37
2018-12-15T03:19:38.064Z,19.07
2018-12-15T03:22:09.040Z,17.17
2018-12-15T03:24:39.496Z,21.07
2018-12-15T03:27:06.983Z,17.10
2018-12-15T03:29:37.539Z,19.87
2018-12-15T03:32:05.042Z,16.47
2018-12-15T03:34:32.479Z,18.33
2018-12-15T03:36:59.938Z,16.17
2018-12-15T03:39:30.905Z,18.87
2018-12-15T03:41:58.407Z,19.60
2018-12-15T03:44:25.849Z,20.77
2018-12-15T03:46:53.337Z,21.00
2018-12-15T03:49:26.856Z,18.25
2018-12-15T03:51:57.972Z,16.03
2018-12-15T03:54:31.402Z,15.13
2018-12-15T03:56:58.869Z,19.70
2018-12-15T03:59:29.666Z,15.60
2018-12-15T04:01:57.122Z,16.27
2018-12-15T04:04:24.627Z,17.27
2018-12-15T04:06:52.083Z,17.47
2018-12-15T04:09:22.586Z,17.70
2018-12-15T04:11:50.055Z,17.87
2018-12-15T04:14:17.496Z,17.90
2018-12-15T04:16:44.971Z,17.43
2018-12-15T04:19:15.332Z,17.77
2018-12-15T04:21:42.796Z,14.77
2018-12-15T04:24:10.240Z,16.30
2018-12-15T04:26:37.716Z,16.17
2018-12-15T04:29:07.886Z,18.43
2018-12-15T04:31:35.357Z,17.10
2018-12-15T04:34:02.818Z,14.87
2018-12-15T04:36:30.286Z,17.77
2018-12-15T04:38:57.807Z,13.90
2018-12-15T04:41:28.217Z,18.53
2018-12-15T04:43:55.782Z,14.93
2018-12-15T04:46:23.240Z,14.93
2018-12-15T04:48:50.673Z,16.40
2018-12-15T04:51:21.945Z,14.87
2018-12-15T04:53:49.376Z,13.93
2018-12-15T04:56:16.860Z,14.20
2018-12-15T04:58:44.396Z,15.33
2018-12-15T05:01:14.897Z,15.07
2018-12-15T05:03:42.367Z,15.63
2018-12-15T05:06:09.873Z,14.20
2018-12-15T05:08:37.316Z,13.17
2018-12-15T05:11:08.100Z,15.17
2018-12-15T05:13:35.590Z,13.57
2018-12-15T05:16:03.028Z,13.37
2018-12-15T05:18:30.491Z,12.10
2018-12-15T05:21:01.030Z,14.53
2018-12-15T05:23:28.492Z,14.73
2018-12-15T05:25:55.964Z,14.30
2018-12-15T05:28:23.411Z,15.13
2018-12-15T05:30:54.195Z,14.93
2018-12-15T05:33:21.655Z,13.20
2018-12-15T05:35:49.100Z,17.07
2018-12-15T05:38:16.549Z,13.97
2018-12-15T05:40:46.919Z,14.83
2018-12-15T05:43:14.364Z,14.70
2018-12-15T05:45:41.796Z,14.57
2018-12-15T05:48:09.252Z,13.53
2018-12-15T05:50:40.236Z,15.27
2018-12-15T05:53:07.676Z,13.83
2018-12-15T05:55:35.108Z,13.97
2018-12-15T05:58:02.560Z,15.40
2018-12-15T06:00:33.707Z,13.60
2018-12-15T06:03:01.151Z,15.40
2018-12-15T06:05:28.596Z,17.03
2018-12-15T06:07:56.080Z,15.20
2018-12-15T06:10:26.743Z,19.43
2018-12-15T06:12:54.209Z,14.53
2018-12-15T06:15:21.680Z,15.50
2018-12-15T06:17:49.139Z,17.25
2018-12-15T06:20:19.614Z,16.00
2018-12-15T06:22:47.061Z,17.40
2018-12-15T06:25:14.493Z,14.17
2018-12-15T06:27:42.022Z,14.30
2018-12-15T06:30:12.631Z,13.53
2018-12-15T06:32:40.094Z,13.27
2018-12-15T06:35:07.577Z,14.53
2018-12-15T06:37:35.112Z,15.70
2018-12-15T06:40:06.329Z,14.97
2018-12-15T06:42:33.798Z,14.33
2018-12-15T06:45:01.252Z,13.53
2018-12-15T06:47:28.795Z,12.65
2018-12-15T06:49:59.384Z,12.27
2018-12-15T06:52:26.845Z,13.13
2018-12-15T06:54:54.299Z,12.13
2018-12-15T06:57:21.753Z,15.97
2018-12-15T06:59:52.619Z,11.37
2018-12-15T07:02:25.949Z,14.13
2018-12-15T07:04:56.919Z,13.57
2018-12-15T07:07:30.499Z,14.63
2018-12-15T07:10:02.482Z,12.13
2018-12-15T07:12:31.157Z,15.27
2018-12-15T07:14:58.623Z,13.22
2018-12-15T07:17:32.478Z,15.38
2018-12-15T07:20:06.412Z,16.40
2018-12-15T07:22:36.992Z,15.47
2018-12-15T07:25:05.008Z,16.07
2018-12-15T07:27:32.472Z,13.67
2018-12-15T07:30:04.731Z,13.22
2018-12-15T07:32:38.130Z,16.93
2018-12-15T07:35:05.637Z,17.70
2018-12-15T07:37:33.096Z,13.03
2018-12-15T07:40:04.466Z,13.10
2018-12-15T07:42:33.555Z,18.17
2018-12-15T07:45:01.024Z,14.43
2018-12-15T07:47:28.524Z,13.20
2018-12-15T07:49:59.104Z,14.43
2018-12-15T07:52:26.638Z,15.55
2018-12-15T07:54:54.083Z,24.67
2018-12-15T07:57:21.512Z,19.63
2018-12-15T07:59:52.702Z,12.80
2018-12-15T08:04:53.939Z,18.32
2018-12-15T08:07:21.439Z,16.40
2018-12-15T08:09:52.252Z,15.55
2018-12-15T08:12:25.247Z,16.23
2018-12-15T08:14:52.705Z,19.87
2018-12-15T08:17:20.175Z,14.73
2018-12-15T08:19:50.644Z,19.10
2018-12-15T08:22:18.124Z,14.97
2018-12-15T08:24:45.577Z,19.23
2018-12-15T08:27:13.022Z,15.27
2018-12-15T08:29:44.089Z,16.70
2018-12-15T08:32:11.528Z,14.97
2018-12-15T08:34:38.971Z,13.70
2018-12-15T08:37:06.412Z,17.57
2018-12-15T08:39:37.069Z,15.50
2018-12-15T08:42:04.548Z,16.33
2018-12-15T08:44:32.047Z,17.57
2018-12-15T08:46:59.494Z,16.13
2018-12-15T08:49:29.953Z,15.90
2018-12-15T08:51:57.399Z,22.50
2018-12-15T08:54:24.860Z,16.93
2018-12-15T08:56:52.300Z,16.42
2018-12-15T08:59:23.272Z,20.90
2018-12-15T09:01:50.712Z,17.57
2018-12-15T09:04:18.198Z,14.98
2018-12-15T09:06:45.722Z,16.43
2018-12-15T09:09:16.482Z,17.87
2018-12-15T09:11:43.932Z,16.32
2018-12-15T09:14:11.428Z,13.87
2018-12-15T09:16:38.863Z,18.07
2018-12-15T09:19:11.270Z,16.97
2018-12-15T09:21:35.771Z,25.27
2018-12-15T09:24:03.280Z,23.93
2018-12-15T09:26:30.722Z,19.27
2018-12-15T09:28:58.197Z,60.33
2018-12-15T09:31:28.952Z,21.40
2018-12-15T09:33:56.399Z,15.90
2018-12-15T09:36:23.854Z,17.73
2018-12-15T09:38:51.676Z,19.47
2018-12-15T09:41:22.820Z,19.97
2018-12-15T09:43:50.327Z,18.47
2018-12-15T09:46:17.824Z,17.40
2018-12-15T09:48:45.287Z,17.77
2018-12-15T09:51:16.559Z,13.80
2018-12-15T09:53:44.042Z,16.07
2018-12-15T09:56:11.467Z,17.57
2018-12-15T09:58:38.960Z,19.40
2018-12-15T10:01:09.638Z,19.00
2018-12-15T10:03:37.082Z,18.90
2018-12-15T10:06:04.616Z,18.10
2018-12-15T10:08:32.124Z,19.47
2018-12-15T10:11:02.620Z,17.33
2018-12-15T10:13:30.094Z,18.73
2018-12-15T10:15:57.573Z,18.23
2018-12-15T10:18:25.039Z,22.57
2018-12-15T10:20:55.499Z,20.17
2018-12-15T10:23:22.984Z,20.70
2018-12-15T10:25:50.429Z,17.90
2018-12-15T10:28:17.875Z,18.97
2018-12-15T10:30:54.163Z,20.27
2018-12-15T10:33:21.627Z,19.37
2018-12-15T10:35:49.105Z,20.43
2018-12-15T10:38:16.592Z,18.57
2018-12-15T10:40:47.678Z,19.33
2018-12-15T10:43:15.140Z,17.10
2018-12-15T10:45:42.633Z,17.67
2018-12-15T10:48:10.067Z,22.77
2018-12-15T10:50:40.767Z,20.23
2018-12-15T10:53:08.212Z,19.37
2018-12-15T10:55:35.669Z,17.43
2018-12-15T10:58:03.179Z,17.03
2018-12-15T11:04:00.814Z,17.75
2018-12-15T11:06:30.082Z,18.43
2018-12-15T11:09:08.240Z,15.65
2018-12-15T11:11:43.521Z,17.20
2018-12-15T11:14:11.075Z,18.53
2018-12-15T11:16:38.527Z,16.63
2018-12-15T11:19:05.991Z,23.77
2018-12-15T11:21:33.428Z,20.93
2018-12-15T11:24:00.901Z,22.30
2018-12-15T11:26:28.331Z,20.37
2018-12-15T11:28:55.807Z,18.87
2018-12-15T11:31:29.643Z,19.03
2018-12-15T11:33:57.138Z,20.00
2018-12-15T11:36:24.568Z,21.70
2018-12-15T11:38:52.036Z,17.97
2018-12-15T11:41:23.563Z,22.43
2018-12-15T11:43:52.289Z,21.07
2018-12-15T11:46:20.568Z,20.23
2018-12-15T11:48:48.044Z,20.87
2018-12-15T11:51:20.672Z,21.50
2018-12-15T11:53:48.115Z,21.13
2018-12-15T11:56:17.512Z,22.87
2018-12-15T11:58:44.949Z,19.40
2018-12-15T12:01:18.307Z,21.30
2018-12-15T12:03:45.783Z,21.57
2018-12-15T12:06:13.303Z,22.50
2018-12-15T12:08:40.774Z,22.80
2018-12-15T12:11:11.145Z,20.67
2018-12-15T12:13:39.520Z,21.50
2018-12-15T12:16:06.960Z,19.23
2018-12-15T12:18:34.411Z,22.20
2018-12-15T12:21:08.140Z,23.47
2018-12-15T12:23:41.836Z,22.87
2018-12-15T12:26:09.355Z,21.27
2018-12-15T12:28:36.784Z,24.17
2018-12-15T12:31:10.724Z,24.53
2018-12-15T12:33:38.201Z,21.25
2018-12-15T12:36:05.677Z,22.67
2018-12-15T12:38:33.134Z,25.93
2018-12-15T12:41:06.708Z,24.52
2018-12-15T12:43:34.152Z,27.70
2018-12-15T12:46:01.603Z,24.73
2018-12-15T12:48:29.035Z,25.80
2018-12-15T12:50:59.979Z,25.80
2018-12-15T12:53:27.452Z,26.77
2018-12-15T12:55:54.924Z,26.37
2018-12-15T12:58:22.375Z,24.53
2018-12-15T13:00:56.452Z,24.97
2018-12-15T13:03:23.901Z,24.95
2018-12-15T13:05:51.375Z,26.70
2018-12-15T13:08:18.833Z,25.17
2018-12-15T13:10:49.736Z,24.77
2018-12-15T13:13:17.180Z,25.20
2018-12-15T13:15:44.694Z,25.90
2018-12-15T13:18:12.171Z,28.95
2018-12-15T13:20:42.889Z,30.10
2018-12-15T13:23:10.332Z,26.10
2018-12-15T13:25:37.783Z,24.83
2018-12-15T13:28:05.260Z,28.57
2018-12-15T13:30:35.665Z,26.52
2018-12-15T13:33:06.963Z,28.00
2018-12-15T13:35:34.448Z,28.02
2018-12-15T13:38:01.928Z,26.07
2018-12-15T13:40:32.983Z,27.27
2018-12-15T13:43:00.423Z,24.23
2018-12-15T13:45:27.905Z,27.10
2018-12-15T13:47:55.370Z,27.00
2018-12-15T13:50:26.148Z,29.47
2018-12-15T13:52:54.376Z,25.37
2018-12-15T13:55:21.843Z,27.87
2018-12-15T13:57:49.281Z,28.63
2018-12-15T14:00:20.121Z,27.83
2018-12-15T14:02:48.415Z,28.30
2018-12-15T14:05:15.896Z,29.40
2018-12-15T14:07:43.332Z,30.00
2018-12-15T14:10:13.992Z,27.30
2018-12-15T14:12:41.443Z,26.87
2018-12-15T14:15:08.924Z,25.63
2018-12-15T14:17:36.392Z,31.13
2018-12-15T14:20:07.029Z,28.50
2018-12-15T14:22:34.466Z,28.63
2018-12-15T14:25:01.935Z,26.73
2018-12-15T14:27:29.363Z,26.57
2018-12-15T14:29:59.961Z,25.07
2018-12-15T14:32:27.405Z,24.37
2018-12-15T14:34:54.883Z,24.17
2018-12-15T14:37:22.311Z,20.83
2018-12-15T14:39:53.013Z,26.03
2018-12-15T14:42:20.465Z,26.50
2018-12-15T14:44:48.004Z,28.67
2018-12-15T14:47:15.463Z,25.33
2018-12-15T14:49:45.947Z,22.73
2018-12-15T14:52:13.412Z,26.77
2018-12-15T14:54:40.975Z,22.90
2018-12-15T14:57:08.495Z,21.47
2018-12-15T14:59:41.836Z,26.17
2018-12-15T15:02:09.339Z,26.20
2018-12-15T15:04:36.834Z,24.40
2018-12-15T15:07:05.045Z,24.23
2018-12-15T15:09:35.923Z,20.85
2018-12-15T15:12:03.420Z,27.00
2018-12-15T15:14:30.859Z,22.62
2018-12-15T15:16:58.336Z,25.05
2018-12-15T15:19:29.088Z,27.20
2018-12-15T15:21:56.643Z,22.55
2018-12-15T15:24:25.596Z,24.70
2018-12-15T15:26:53.092Z,23.35
2018-12-15T15:29:23.564Z,23.85
2018-12-15T15:31:54.178Z,16.15
2018-12-15T15:34:21.615Z,24.85
2018-12-15T15:36:49.084Z,25.45
2018-12-15T15:39:19.948Z,19.73
2018-12-15T15:41:47.459Z,24.07
2018-12-15T15:44:14.895Z,23.87
2018-12-15T15:46:42.366Z,24.40
2018-12-15T15:49:09.815Z,25.68
2018-12-15T15:51:37.296Z,19.37
2018-12-15T15:54:04.807Z,24.00
2018-12-15T15:56:32.283Z,27.75
2018-12-15T15:59:00.364Z,28.12
2018-12-15T16:01:27.856Z,26.80
2018-12-15T16:03:55.295Z,25.10
2018-12-15T16:06:22.803Z,22.87
2018-12-15T16:08:50.254Z,24.83
2018-12-15T16:11:21.475Z,25.53
2018-12-15T16:13:48.979Z,26.03
2018-12-15T16:16:28.072Z,27.37
2018-12-15T16:18:55.567Z,21.90
2018-12-15T16:21:26.130Z,26.62
2018-12-15T16:23:53.586Z,22.33
2018-12-15T16:26:21.059Z,26.00
2018-12-15T16:28:48.499Z,26.77
2018-12-15T16:31:19.191Z,26.07
2018-12-15T16:33:46.655Z,27.27
2018-12-15T16:36:14.138Z,25.97
2018-12-15T16:38:41.583Z,25.90
2018-12-15T16:41:12.023Z,26.57
2018-12-15T16:43:39.464Z,23.43
2018-12-15T16:46:06.975Z,21.95
2018-12-15T16:48:34.451Z,27.83
2018-12-15T16:51:05.053Z,24.27
2018-12-15T16:53:32.504Z,24.85
2018-12-15T16:55:59.987Z,28.42
2018-12-15T16:58:27.859Z,27.15
2018-12-15T17:00:59.050Z,23.73
2018-12-15T17:03:30.472Z,27.22
2018-12-15T17:05:55.976Z,25.48
2018-12-15T17:08:24.272Z,26.33
2018-12-15T17:10:57.996Z,27.13
2018-12-15T17:13:26.358Z,26.10
2018-12-15T17:15:53.869Z,27.20
2018-12-15T17:18:21.311Z,24.27
2018-12-15T17:20:56.642Z,25.67
2018-12-15T17:23:21.901Z,24.02
2018-12-15T17:25:49.407Z,27.30
2018-12-15T17:28:16.847Z,26.97
2018-12-15T17:30:47.418Z,27.17
2018-12-15T17:33:16.262Z,25.85
2018-12-15T17:35:43.732Z,30.00
2018-12-15T17:38:11.238Z,23.27
2018-12-15T17:40:41.715Z,26.05
2018-12-15T17:43:09.196Z,26.50
2018-12-15T17:45:36.632Z,24.40
2018-12-15T17:48:04.174Z,26.77
2018-12-15T17:50:35.584Z,25.43
2018-12-15T17:53:05.909Z,28.05
2018-12-15T17:55:33.392Z,26.15
2018-12-15T17:58:00.871Z,25.60
2018-12-15T18:00:32.076Z,24.00
2018-12-15T18:02:59.575Z,26.10
2018-12-15T18:05:29.511Z,37.05
2018-12-15T18:07:56.980Z,26.27
2018-12-15T18:10:28.032Z,23.57
2018-12-15T18:12:55.520Z,25.72
2018-12-15T18:15:22.968Z,25.25
2018-12-15T18:17:50.467Z,24.92
2018-12-15T18:20:21.579Z,27.48
2018-12-15T18:22:49.060Z,25.92
2018-12-15T18:25:16.532Z,28.52
2018-12-15T18:27:43.995Z,25.77
2018-12-15T18:30:15.435Z,32.77
2018-12-15T18:32:43.696Z,27.62
2018-12-15T18:35:11.936Z,28.50
2018-12-15T18:37:39.415Z,28.50
2018-12-15T18:40:09.825Z,26.07
2018-12-15T18:42:37.308Z,25.68
2018-12-15T18:45:05.612Z,28.25
2018-12-15T18:47:33.107Z,31.55
2018-12-15T18:50:06.472Z,25.08
2018-12-15T18:52:33.954Z,26.93
2018-12-15T18:55:01.391Z,25.97
2018-12-15T18:57:28.878Z,24.45
2018-12-15T18:59:59.652Z,28.62
2018-12-15T19:02:27.263Z,26.93
2018-12-15T19:04:54.709Z,24.27
2018-12-15T19:07:22.253Z,26.57
2018-12-15T19:09:52.733Z,29.35
2018-12-15T19:12:20.204Z,30.32
2018-12-15T19:14:47.657Z,26.12
2018-12-15T19:17:15.139Z,28.30
2018-12-15T19:19:45.644Z,31.33
2018-12-15T19:22:13.155Z,28.40
2018-12-15T19:24:40.594Z,27.98
2018-12-15T19:27:08.115Z,36.08
2018-12-15T19:29:38.660Z,28.42
2018-12-15T19:32:06.167Z,27.82
2018-12-15T19:34:33.644Z,29.10
2018-12-15T19:37:01.128Z,29.15
2018-12-15T19:39:31.926Z,28.17
2018-12-15T19:41:59.448Z,29.57
2018-12-15T19:44:26.910Z,29.20
2018-12-15T19:46:54.396Z,29.27
2018-12-15T19:49:25.003Z,32.88
2018-12-15T19:51:52.516Z,27.80
2018-12-15T19:54:19.960Z,28.47
2018-12-15T19:56:47.434Z,30.75
2018-12-15T19:59:18.218Z,34.90
2018-12-15T20:01:45.683Z,28.80
2018-12-15T20:04:13.131Z,29.27
2018-12-15T20:06:40.667Z,29.60
2018-12-15T20:09:08.119Z,31.20
2018-12-15T20:11:35.673Z,38.95
2018-12-15T20:14:03.152Z,34.33
2018-12-15T20:16:30.592Z,32.28
2018-12-15T20:18:58.080Z,32.60
2018-12-15T20:21:28.944Z,37.40
2018-12-15T20:23:56.435Z,34.95
2018-12-15T20:26:23.884Z,31.65
2018-12-15T20:28:51.377Z,35.08
2018-12-15T20:31:21.945Z,27.77
2018-12-15T20:33:49.419Z,29.77
2018-12-15T20:36:16.897Z,30.43
2018-12-15T20:38:44.407Z,30.35
2018-12-15T20:41:15.075Z,31.25
2018-12-15T20:43:42.563Z,29.65
2018-12-15T20:46:10.406Z,30.10
2018-12-15T20:48:37.965Z,31.35
2018-12-15T20:51:08.511Z,30.55
2018-12-15T20:53:36.054Z,30.50
2018-12-15T20:56:03.528Z,30.65
2018-12-15T20:58:31.039Z,34.63
2018-12-15T21:01:04.220Z,28.07
2018-12-15T21:03:31.704Z,32.63
2018-12-15T21:05:59.148Z,40.65
2018-12-15T21:08:26.640Z,34.30
2018-12-15T21:10:57.443Z,27.35
2018-12-15T21:13:24.924Z,30.10
2018-12-15T21:15:54.420Z,26.77
2018-12-15T21:18:21.907Z,25.85
2018-12-15T21:20:52.419Z,31.55
2018-12-15T21:23:19.891Z,26.80
2018-12-15T21:25:47.335Z,27.60
2018-12-15T21:28:14.820Z,30.17
2018-12-15T21:30:45.611Z,27.42
2018-12-15T21:33:13.162Z,28.23
2018-12-15T21:35:40.685Z,26.45
2018-12-15T21:38:08.153Z,28.85
2018-12-15T21:40:38.931Z,28.38
2018-12-15T21:43:06.456Z,29.70
2018-12-15T21:45:33.899Z,28.85
2018-12-15T21:48:01.363Z,26.90
2018-12-15T21:50:31.979Z,30.25
2018-12-15T21:52:59.451Z,30.40
2018-12-15T21:55:26.931Z,26.17
2018-12-15T21:57:54.404Z,28.05
2018-12-15T22:00:25.276Z,29.98
2018-12-15T22:02:52.739Z,29.55
2018-12-15T22:05:20.211Z,26.12
2018-12-15T22:07:47.727Z,26.97
2018-12-15T22:10:18.293Z,28.33
2018-12-15T22:12:45.758Z,26.15
2018-12-15T22:15:13.273Z,28.27
2018-12-15T22:17:40.732Z,27.20
2018-12-15T22:20:12.144Z,28.32
2018-12-15T22:22:39.644Z,27.62
2018-12-15T22:25:07.155Z,26.25
2018-12-15T22:27:34.617Z,25.25
2018-12-15T22:30:06.933Z,30.32
2018-12-15T22:32:34.415Z,28.85
2018-12-15T22:35:01.924Z,27.15
2018-12-15T22:37:29.399Z,29.10
2018-12-15T22:40:00.161Z,25.33
2018-12-15T22:42:27.691Z,26.40
2018-12-15T22:44:55.133Z,29.63
2018-12-15T22:47:22.605Z,28.65
2018-12-15T22:49:53.404Z,25.55
2018-12-15T22:52:20.863Z,26.65
2018-12-15T22:54:48.299Z,26.87
2018-12-15T22:57:15.742Z,29.50
2018-12-15T22:59:46.312Z,27.15
2018-12-15T23:02:13.795Z,20.45
2018-12-15T23:04:41.327Z,27.82
2018-12-15T23:07:08.775Z,25.02
2018-12-15T23:09:39.283Z,26.60
2018-12-15T23:12:06.766Z,26.23
2018-12-15T23:14:34.845Z,28.73
2018-12-15T23:17:02.319Z,26.85
2018-12-15T23:19:33.382Z,26.57
2018-12-15T23:22:00.825Z,27.17
2018-12-15T23:24:28.287Z,23.73
2018-12-15T23:26:55.971Z,25.97
2018-12-15T23:29:29.520Z,27.32
2018-12-15T23:31:56.964Z,26.50
2018-12-15T23:34:25.449Z,27.20
2018-12-15T23:36:52.901Z,23.07
2018-12-15T23:39:23.800Z,23.80
2018-12-15T23:41:57.220Z,24.43
2018-12-15T23:44:24.700Z,24.30
2018-12-15T23:46:52.308Z,27.13
2018-12-15T23:49:22.924Z,29.23
2018-12-15T23:51:56.266Z,27.55
2018-12-15T23:54:23.723Z,24.30
2018-12-15T23:56:51.176Z,23.90
2018-12-15T23:59:22.439Z,27.17
